Time;durP1;ratioP1;P1;durP2;ratioP2;P2;SDS_P1;SDS_P2;PMS_P1;PMS_P2;Temp;Humidity;BMP_temperature;BMP_pressure;BME280_temperature;BME280_humidity;BME280_pressure;Samples;Min_cycle;Max_cycle;Signal;HPM_P1;HPM_P2
2022/03/22 00:02:03;;;;;;;35.05;14.82;;;2.10;99.90;;;;;;4962188;28;20033;-88
2022/03/22 00:04:29;;;;;;;25.38;13.60;;;2.00;99.90;;;;;;4977572;28;20041;-87
2022/03/22 00:06:55;;;;;;;33.25;15.70;;;2.00;99.90;;;;;;4961827;28;20034;-87
2022/03/22 00:09:21;;;;;;;31.58;14.43;;;1.90;99.90;;;;;;4961564;28;20030;-88
2022/03/22 00:11:50;;;;;;;30.08;14.55;;;1.90;99.90;;;;;;4993804;28;20120;-87
2022/03/22 00:14:16;;;;;;;29.45;14.90;;;1.90;99.90;;;;;;4977685;28;20064;-87
2022/03/22 00:16:42;;;;;;;29.40;14.65;;;1.90;99.90;;;;;;4961568;28;20038;-87
2022/03/22 00:19:08;;;;;;;30.60;14.82;;;1.80;99.90;;;;;;4961258;28;20093;-87
2022/03/22 00:21:35;;;;;;;28.00;14.95;;;1.70;99.90;;;;;;4977726;28;20180;-87
2022/03/22 00:24:04;;;;;;;26.80;14.95;;;1.70;99.90;;;;;;4961631;28;20030;-87
2022/03/22 00:26:29;;;;;;;28.73;14.68;;;1.50;99.90;;;;;;4961560;28;20046;-87
2022/03/22 00:28:56;;;;;;;29.30;15.15;;;1.50;99.90;;;;;;4961453;28;20038;-87
2022/03/22 00:31:21;;;;;;;29.85;15.32;;;1.40;99.90;;;;;;4961509;28;20030;-87
2022/03/22 00:33:47;;;;;;;32.03;16.17;;;1.40;99.90;;;;;;4961341;28;20057;-87
2022/03/22 00:36:13;;;;;;;29.30;15.48;;;1.30;99.90;;;;;;4960424;28;20034;-87
2022/03/22 00:38:39;;;;;;;34.30;16.60;;;1.30;99.90;;;;;;4960984;28;20034;-87
2022/03/22 00:41:05;;;;;;;31.45;17.15;;;1.50;99.90;;;;;;4960853;28;20080;-87
2022/03/22 00:43:34;;;;;;;30.75;16.25;;;1.60;99.90;;;;;;4961463;28;20026;-87
2022/03/22 00:46:01;;;;;;;34.17;15.35;;;1.80;99.90;;;;;;4993395;28;20045;-87
2022/03/22 00:48:27;;;;;;;28.52;14.38;;;2.00;99.90;;;;;;4961305;28;20030;-87
2022/03/22 00:50:54;;;;;;;30.85;15.95;;;2.10;99.90;;;;;;4961660;28;20030;-87
2022/03/22 00:53:20;;;;;;;29.63;14.98;;;2.10;99.90;;;;;;4960958;28;20088;-88
2022/03/22 00:55:48;;;;;;;29.95;15.05;;;2.10;99.90;;;;;;4977172;28;20046;-88
2022/03/22 00:58:15;;;;;;;29.92;14.82;;;2.00;99.90;;;;;;4960945;28;20633;-87
2022/03/22 01:00:41;;;;;;;32.28;16.17;;;1.90;99.90;;;;;;4960896;28;20038;-87
2022/03/22 01:03:09;;;;;;;28.65;15.52;;;1.90;99.90;;;;;;4961165;28;20113;-87
2022/03/22 01:05:35;;;;;;;32.25;15.52;;;2.00;99.90;;;;;;4993307;28;20069;-87
2022/03/22 01:08:07;;;;;;;30.45;15.32;;;2.00;99.90;;;;;;4960528;28;20034;-87
2022/03/22 01:10:35;;;;;;;28.92;14.52;;;1.90;99.90;;;;;;4993100;28;20430;-87
2022/03/22 01:13:02;;;;;;;29.65;15.95;;;1.70;99.90;;;;;;4976558;28;20030;-87
2022/03/22 01:15:33;;;;;;;30.55;15.77;;;1.80;99.90;;;;;;4960485;28;20508;-87
2022/03/22 01:18:06;;;;;;;36.13;17.17;;;1.90;99.90;;;;;;4992877;28;20026;-87
2022/03/22 01:20:38;;;;;;;31.42;15.50;;;2.00;99.90;;;;;;4960781;28;20050;-88
2022/03/22 01:23:07;;;;;;;32.15;16.63;;;2.00;99.90;;;;;;4960771;28;20691;-87
2022/03/22 01:25:34;;;;;;;32.83;16.35;;;1.90;99.90;;;;;;4976596;28;20034;-87
2022/03/22 01:28:02;;;;;;;35.38;16.63;;;1.80;99.90;;;;;;4960316;28;20041;-87
2022/03/22 01:30:29;;;;;;;36.22;16.60;;;1.70;99.90;;;;;;4976702;28;20041;-87
2022/03/22 01:32:56;;;;;;;34.00;16.23;;;1.60;99.90;;;;;;4960475;28;20537;-87
2022/03/22 01:35:25;;;;;;;30.75;15.52;;;1.60;99.90;;;;;;4976776;28;20045;-87
2022/03/22 01:37:52;;;;;;;32.63;16.63;;;1.60;99.90;;;;;;4960295;28;20038;-88
2022/03/22 01:40:19;;;;;;;39.80;15.45;;;1.60;99.90;;;;;;4976491;28;20161;-87
2022/03/22 01:42:46;;;;;;;29.35;14.63;;;1.70;99.90;;;;;;4992774;28;20864;-87
2022/03/22 01:45:15;;;;;;;30.20;14.45;;;1.80;99.90;;;;;;4992858;28;20505;-87
2022/03/22 01:47:42;;;;;;;30.98;15.52;;;1.90;99.90;;;;;;4959946;28;20030;-87
2022/03/22 01:50:11;;;;;;;34.83;15.63;;;2.00;99.90;;;;;;4976397;28;20109;-87
2022/03/22 01:52:40;;;;;;;28.70;14.40;;;2.10;99.90;;;;;;4992607;28;20034;-87
2022/03/22 01:55:07;;;;;;;30.08;15.77;;;2.10;99.90;;;;;;4976084;28;20133;-87
2022/03/22 01:57:33;;;;;;;32.80;16.35;;;2.20;99.90;;;;;;4959536;28;20038;-87
2022/03/22 02:00:02;;;;;;;30.55;15.00;;;2.30;99.90;;;;;;4959801;28;20038;-87
2022/03/22 02:08:01;;;;;;;32.42;15.60;;;2.30;99.90;;;;;;4975628;28;20044;-87
2022/03/22 02:10:27;;;;;;;29.17;14.05;;;2.30;99.90;;;;;;4976045;28;20034;-87
2022/03/22 02:12:52;;;;;;;30.35;15.18;;;2.30;99.90;;;;;;4960144;28;20070;-87
2022/03/22 02:15:19;;;;;;;35.67;15.73;;;2.30;99.90;;;;;;4960366;28;20468;-87
2022/03/22 02:17:46;;;;;;;29.17;15.38;;;2.40;99.90;;;;;;4960358;28;20038;-87
2022/03/22 02:20:15;;;;;;;29.58;14.48;;;2.50;99.90;;;;;;4976478;28;20470;-87
2022/03/22 02:22:50;;;;;;;32.33;15.35;;;2.50;99.90;;;;;;4976596;28;20062;-87
2022/03/22 02:25:17;;;;;;;29.50;15.90;;;2.50;99.90;;;;;;4960408;28;20026;-88
2022/03/22 02:27:48;;;;;;;29.73;15.45;;;2.50;99.90;;;;;;4992260;28;20388;-87
2022/03/22 02:30:15;;;;;;;32.60;15.50;;;2.60;99.90;;;;;;4992821;28;20137;-87
2022/03/22 02:32:55;;;;;;;30.75;14.65;;;2.70;99.90;;;;;;4992771;28;20126;-87
2022/03/22 02:35:22;;;;;;;31.02;16.17;;;2.80;99.90;;;;;;4976931;28;20073;-87
2022/03/22 02:37:48;;;;;;;36.65;16.45;;;2.80;99.90;;;;;;4992179;28;20084;-88
2022/03/22 02:40:14;;;;;;;29.58;15.60;;;2.80;99.90;;;;;;4975958;28;20042;-87
2022/03/22 02:42:54;;;;;;;30.77;15.27;;;2.90;99.90;;;;;;4992052;28;20772;-87
2022/03/22 02:45:24;;;;;;;29.20;16.17;;;2.80;99.90;;;;;;4976285;28;20057;-87
2022/03/22 02:47:50;;;;;;;29.40;15.70;;;2.80;99.90;;;;;;4959722;28;20734;-88
2022/03/22 02:50:16;;;;;;;28.77;15.55;;;2.70;99.90;;;;;;4960488;28;20113;-87
2022/03/22 02:52:42;;;;;;;33.67;15.15;;;2.70;99.90;;;;;;4960139;28;20126;-87
2022/03/22 02:55:09;;;;;;;31.23;15.60;;;2.70;99.90;;;;;;4960256;28;20034;-87
2022/03/22 02:57:37;;;;;;;29.50;15.15;;;2.70;99.90;;;;;;4992260;28;20038;-87
2022/03/22 03:00:05;;;;;;;27.48;15.05;;;2.60;99.90;;;;;;4961435;28;20030;-87
2022/03/22 03:02:31;;;;;;;33.15;16.15;;;2.40;99.90;;;;;;4964084;28;20375;-89
2022/03/22 03:04:57;;;;;;;29.52;15.00;;;2.40;99.90;;;;;;4964187;28;20042;-88
2022/03/22 03:07:22;;;;;;;28.27;15.73;;;2.40;99.90;;;;;;4963639;28;20026;-88
2022/03/22 03:09:48;;;;;;;35.80;16.65;;;2.40;99.90;;;;;;4963888;28;20062;-89
2022/03/22 03:12:14;;;;;;;28.23;14.77;;;2.30;99.90;;;;;;4963521;28;20470;-88
2022/03/22 03:14:43;;;;;;;33.40;15.73;;;2.20;99.90;;;;;;4963722;28;20034;-88
2022/03/22 03:17:12;;;;;;;30.75;15.27;;;2.10;99.90;;;;;;4963332;28;20054;-89
2022/03/22 03:19:37;;;;;;;31.15;16.02;;;2.20;99.90;;;;;;4963420;28;20030;-88
2022/03/22 03:22:04;;;;;;;34.03;16.30;;;2.30;99.90;;;;;;4963360;28;20031;-88
2022/03/22 03:24:31;;;;;;;41.90;17.20;;;2.30;99.90;;;;;;4963330;28;20030;-88
2022/03/22 03:26:58;;;;;;;47.85;20.20;;;2.30;99.90;;;;;;4963136;28;20018;-88
2022/03/22 03:29:25;;;;;;;47.13;21.95;;;2.20;99.90;;;;;;4962465;28;20038;-88
2022/03/22 03:31:52;;;;;;;61.60;28.67;;;2.10;99.90;;;;;;4962995;28;20038;-88
2022/03/22 03:34:19;;;;;;;41.75;18.98;;;2.00;99.90;;;;;;4995081;28;20080;-88
2022/03/22 03:36:45;;;;;;;33.83;17.05;;;2.00;99.90;;;;;;4963042;28;20088;-88
2022/03/22 03:39:11;;;;;;;37.70;17.42;;;1.90;99.90;;;;;;4962752;28;20121;-88
2022/03/22 03:41:53;;;;;;;40.17;18.50;;;1.90;99.90;;;;;;4962167;28;20117;-89
2022/03/22 03:47:09;;;;;;;39.95;18.50;;;1.80;99.90;;;;;;4979051;28;20030;-89
2022/03/22 03:49:42;;;;;;;39.97;16.67;;;1.80;99.90;;;;;;4995481;28;20429;-89
2022/03/22 03:52:30;;;;;;;32.38;15.70;;;1.80;99.90;;;;;;4995382;28;20030;-88
2022/03/22 03:54:56;;;;;;;40.47;17.60;;;1.70;99.90;;;;;;4978091;28;20085;-88
2022/03/22 03:57:23;;;;;;;32.80;16.73;;;1.80;99.90;;;;;;4962551;28;20019;-88
2022/03/22 03:59:50;;;;;;;33.65;15.65;;;1.80;99.90;;;;;;4962815;28;20037;-89
2022/03/22 04:02:16;;;;;;;33.33;16.15;;;1.80;99.90;;;;;;4978719;28;20033;-88
2022/03/22 04:04:43;;;;;;;40.17;17.50;;;1.70;99.90;;;;;;4962475;28;20176;-88
2022/03/22 04:07:12;;;;;;;76.40;31.38;;;1.60;99.90;;;;;;4962269;28;20034;-88
2022/03/22 04:09:39;;;;;;;52.08;21.45;;;1.60;99.90;;;;;;4978250;28;20035;-88
2022/03/22 04:12:06;;;;;;;35.40;17.80;;;1.60;99.90;;;;;;4962579;28;20025;-88
2022/03/22 04:14:32;;;;;;;45.33;18.45;;;1.60;99.90;;;;;;4962573;28;20168;-89
2022/03/22 04:16:58;;;;;;;36.65;17.17;;;1.60;99.90;;;;;;4964371;28;20129;-88
2022/03/22 04:19:27;;;;;;;39.58;18.58;;;1.80;99.90;;;;;;4964400;28;20038;-87
2022/03/22 04:21:55;;;;;;;57.47;21.92;;;2.00;99.90;;;;;;4964628;28;20046;-88
2022/03/22 04:24:21;;;;;;;58.42;23.23;;;2.10;99.90;;;;;;4961844;28;20045;-88
2022/03/22 04:26:47;;;;;;;48.72;19.23;;;2.30;99.90;;;;;;4977421;28;20038;-87
2022/03/22 04:34:44;;;;;;;68.30;28.17;;;2.40;99.90;;;;;;4978197;28;20120;-88
2022/03/22 04:37:13;;;;;;;73.38;28.05;;;2.50;99.90;;;;;;4993934;28;20030;-88
2022/03/22 04:39:40;;;;;;;41.90;21.02;;;2.60;99.90;;;;;;4994315;28;20084;-88
2022/03/22 04:42:06;;;;;;;33.42;19.83;;;2.70;99.90;;;;;;4962127;28;20030;-88
2022/03/22 04:44:47;;;;;;;29.38;15.98;;;2.80;99.90;;;;;;4961857;28;20037;-88
2022/03/22 04:47:13;;;;;;;29.65;17.92;;;2.70;99.90;;;;;;4960800;28;20080;-87
2022/03/22 04:49:39;;;;;;;33.65;16.67;;;2.70;99.90;;;;;;4994292;28;20125;-88
2022/03/22 04:57:35;;;;;;;27.55;13.60;;;2.80;99.90;;;;;;4977987;28;20080;-88
2022/03/22 05:00:00;;;;;;;29.00;13.85;;;2.90;99.90;;;;;;4961807;28;20686;-87
2022/03/22 05:02:26;;;;;;;21.90;13.27;;;2.80;99.90;;;;;;4962008;28;20022;-88
2022/03/22 05:04:52;;;;;;;31.40;13.60;;;2.80;99.90;;;;;;4962001;28;20176;-88
2022/03/22 05:07:17;;;;;;;23.10;12.70;;;2.80;99.90;;;;;;4961748;28;20117;-88
2022/03/22 05:09:43;;;;;;;22.38;12.90;;;2.90;99.90;;;;;;4994247;28;20121;-88
2022/03/22 05:12:13;;;;;;;24.70;13.07;;;2.90;99.90;;;;;;4961884;28;20023;-88
2022/03/22 05:14:42;;;;;;;27.50;12.93;;;2.90;99.90;;;;;;4977682;28;20022;-87
2022/03/22 05:17:11;;;;;;;27.45;12.93;;;3.00;99.90;;;;;;4961638;28;20022;-88
2022/03/22 05:19:42;;;;;;;30.35;13.68;;;2.90;99.90;;;;;;4962269;28;20041;-88
2022/03/22 05:22:08;;;;;;;30.30;13.85;;;3.00;99.90;;;;;;4977837;28;20030;-88
2022/03/22 05:24:34;;;;;;;24.85;13.30;;;2.90;99.90;;;;;;4993179;28;20056;-88
2022/03/22 05:27:06;;;;;;;24.15;13.75;;;2.90;99.90;;;;;;4960538;28;20074;-84
2022/03/22 05:29:32;;;;;;;30.10;13.98;;;2.80;99.90;;;;;;4992644;28;20027;-84
2022/03/22 05:31:58;;;;;;;24.10;14.15;;;2.70;99.90;;;;;;4992888;28;20547;-84
2022/03/22 05:34:24;;;;;;;24.50;13.20;;;2.60;99.90;;;;;;4976464;28;20042;-84
2022/03/22 05:36:49;;;;;;;24.33;13.40;;;2.60;99.90;;;;;;4975905;28;20034;-84
2022/03/22 05:39:15;;;;;;;25.50;12.85;;;2.70;99.90;;;;;;4960137;28;20041;-84
2022/03/22 05:41:41;;;;;;;24.33;12.85;;;2.70;99.90;;;;;;4959803;28;20037;-84
2022/03/22 05:44:20;;;;;;;23.60;13.13;;;2.80;99.90;;;;;;4960075;28;20069;-84
2022/03/22 05:46:46;;;;;;;25.60;13.23;;;3.00;99.90;;;;;;4976402;28;20034;-84
2022/03/22 05:49:13;;;;;;;25.83;12.98;;;3.10;99.90;;;;;;4976122;28;20061;-84
2022/03/22 05:51:40;;;;;;;22.50;12.25;;;3.20;99.90;;;;;;4960111;28;20032;-84
2022/03/22 05:54:05;;;;;;;28.88;12.85;;;3.20;99.90;;;;;;4959979;28;20891;-84
2022/03/22 05:56:31;;;;;;;26.33;11.98;;;3.30;99.90;;;;;;4959994;28;20177;-84
2022/03/22 05:58:59;;;;;;;27.17;13.88;;;3.30;99.90;;;;;;4976134;28;20041;-84
2022/03/22 06:01:26;;;;;;;27.73;12.63;;;3.30;99.90;;;;;;4959846;28;20042;-83
2022/03/22 06:03:52;;;;;;;28.88;13.52;;;3.30;99.90;;;;;;4975917;28;20031;-84
2022/03/22 06:06:17;;;;;;;21.40;12.40;;;3.30;99.90;;;;;;4991960;28;20041;-84
2022/03/22 06:08:44;;;;;;;24.17;13.52;;;3.30;99.90;;;;;;4991871;28;20092;-84
2022/03/22 06:11:10;;;;;;;26.38;12.27;;;3.40;99.90;;;;;;4992100;28;20030;-84
2022/03/22 06:13:36;;;;;;;24.73;12.68;;;3.40;99.90;;;;;;4976048;28;20050;-84
2022/03/22 06:16:05;;;;;;;25.48;12.38;;;3.40;99.90;;;;;;4993562;28;20500;-84
2022/03/22 06:18:31;;;;;;;24.27;12.10;;;3.50;99.90;;;;;;4993155;28;20034;-84
2022/03/22 06:20:57;;;;;;;23.63;12.70;;;3.40;99.90;;;;;;4991962;28;20089;-84
2022/03/22 06:23:23;;;;;;;24.67;13.13;;;3.40;99.90;;;;;;4976118;28;20033;-84
2022/03/22 06:25:48;;;;;;;30.80;13.98;;;3.50;99.90;;;;;;4991913;28;20034;-84
2022/03/22 06:28:14;;;;;;;23.05;12.07;;;3.50;99.90;;;;;;4959327;28;20041;-84
2022/03/22 06:30:41;;;;;;;36.83;17.00;;;3.50;99.90;;;;;;4991946;28;20022;-84
2022/03/22 06:33:13;;;;;;;63.60;24.77;;;3.70;99.90;;;;;;4959953;28;20030;-83
2022/03/22 06:35:39;;;;;;;64.28;25.25;;;3.70;99.90;;;;;;4962007;28;20125;-83
2022/03/22 06:38:05;;;;;;;48.45;21.30;;;3.80;99.90;;;;;;4962993;28;20030;-83
2022/03/22 06:40:34;;;;;;;53.85;22.05;;;3.80;99.90;;;;;;4962918;28;20497;-83
2022/03/22 06:43:04;;;;;;;37.58;17.77;;;3.80;99.90;;;;;;4962656;28;20078;-83
2022/03/22 06:45:29;;;;;;;37.72;17.63;;;3.90;99.90;;;;;;4979599;28;20469;-83
2022/03/22 06:47:55;;;;;;;41.58;17.70;;;3.90;99.90;;;;;;4963130;28;20026;-83
2022/03/22 06:50:21;;;;;;;27.30;15.40;;;4.00;99.90;;;;;;4963034;28;20041;-83
2022/03/22 06:52:53;;;;;;;26.77;13.75;;;4.00;99.90;;;;;;4963126;28;20030;-83
2022/03/22 06:55:22;;;;;;;28.20;13.50;;;4.10;99.90;;;;;;4995340;28;20039;-83
2022/03/22 06:57:51;;;;;;;25.92;13.05;;;4.20;99.90;;;;;;4978914;28;20042;-83
2022/03/22 07:00:19;;;;;;;25.10;13.13;;;4.30;99.90;;;;;;4995386;28;20473;-83
2022/03/22 07:02:47;;;;;;;26.10;14.27;;;4.60;99.90;;;;;;4963184;28;20030;-83
2022/03/22 07:05:14;;;;;;;26.05;13.52;;;4.70;99.90;;;;;;4962916;28;20080;-83
2022/03/22 07:07:40;;;;;;;26.92;13.10;;;4.80;99.90;;;;;;4979097;28;20110;-83
2022/03/22 07:10:11;;;;;;;25.08;13.07;;;4.90;99.90;;;;;;4979345;28;20065;-83
2022/03/22 07:12:53;;;;;;;26.77;13.55;;;5.00;99.90;;;;;;4962911;28;20034;-84
2022/03/22 07:15:31;;;;;;;24.52;13.10;;;5.10;99.90;;;;;;4963124;28;20038;-84
2022/03/22 07:17:58;;;;;;;22.13;12.07;;;5.20;99.90;;;;;;4962537;28;20034;-83
2022/03/22 07:20:24;;;;;;;22.90;13.32;;;5.30;99.80;;;;;;4962363;28;20046;-84
2022/03/22 07:22:50;;;;;;;25.75;13.73;;;5.40;99.80;;;;;;4978557;28;20034;-83
2022/03/22 07:25:16;;;;;;;42.83;19.10;;;5.50;99.90;;;;;;4962541;28;20480;-83
2022/03/22 07:27:42;;;;;;;35.22;16.95;;;5.70;99.90;;;;;;4962030;28;20132;-84
2022/03/22 07:30:12;;;;;;;32.47;14.88;;;5.60;99.60;;;;;;4995086;28;20397;-83
2022/03/22 07:32:39;;;;;;;28.35;13.27;;;5.70;99.20;;;;;;4962912;28;20034;-84
2022/03/22 07:35:07;;;;;;;22.30;13.00;;;5.70;99.00;;;;;;4962826;28;20026;-83
2022/03/22 07:37:33;;;;;;;24.88;13.88;;;5.80;99.20;;;;;;4978659;28;20521;-84
2022/03/22 07:39:59;;;;;;;26.50;14.23;;;5.90;99.00;;;;;;4962597;28;20034;-83
2022/03/22 07:42:29;;;;;;;26.83;13.25;;;6.00;98.30;;;;;;4962755;28;20033;-83
2022/03/22 07:44:57;;;;;;;24.00;12.63;;;6.00;98.40;;;;;;4995235;28;20039;-83
2022/03/22 07:47:23;;;;;;;26.42;13.98;;;6.20;97.50;;;;;;4962168;28;20018;-83
2022/03/22 07:55:18;;;;;;;25.27;13.85;;;6.30;96.50;;;;;;4978428;28;20030;-84
2022/03/22 07:57:44;;;;;;;26.77;13.73;;;6.50;96.60;;;;;;4993863;28;20030;-83
2022/03/22 08:00:11;;;;;;;23.48;13.05;;;6.50;95.80;;;;;;4962123;28;20130;-83
2022/03/22 08:02:37;;;;;;;22.83;12.52;;;6.50;95.50;;;;;;4962237;28;20429;-83
2022/03/22 08:05:06;;;;;;;25.33;13.45;;;6.50;95.70;;;;;;4962133;28;20038;-83
2022/03/22 08:07:32;;;;;;;26.17;13.68;;;6.60;96.30;;;;;;4961974;28;20054;-83
2022/03/22 08:09:58;;;;;;;24.23;13.77;;;6.70;96.10;;;;;;4962176;28;20057;-83
2022/03/22 08:12:23;;;;;;;26.75;13.93;;;6.60;94.90;;;;;;4962278;28;20034;-83
2022/03/22 08:14:49;;;;;;;23.10;13.13;;;6.70;95.10;;;;;;4994260;28;20041;-83
2022/03/22 08:17:15;;;;;;;25.38;13.90;;;6.80;95.20;;;;;;4961511;28;20034;-83
2022/03/22 08:19:42;;;;;;;24.45;13.60;;;6.80;95.00;;;;;;4978241;28;20073;-84
2022/03/22 08:22:08;;;;;;;25.70;13.88;;;6.90;95.10;;;;;;4961951;28;20046;-84
2022/03/22 08:24:34;;;;;;;21.85;12.77;;;7.00;95.00;;;;;;4961757;28;20042;-84
2022/03/22 08:27:00;;;;;;;22.25;13.68;;;7.10;95.00;;;;;;4994711;28;20483;-84
2022/03/22 08:29:26;;;;;;;24.00;14.07;;;7.20;94.70;;;;;;4977433;28;20106;-83
2022/03/22 08:31:52;;;;;;;25.10;13.57;;;7.30;94.00;;;;;;4961273;28;20026;-84
2022/03/22 08:34:19;;;;;;;23.85;13.75;;;7.30;93.70;;;;;;4977553;28;20035;-84
2022/03/22 08:36:45;;;;;;;27.77;13.55;;;7.40;94.30;;;;;;4994028;28;20044;-83
2022/03/22 08:39:11;;;;;;;23.75;13.40;;;7.60;93.60;;;;;;4960796;28;20034;-83
2022/03/22 08:41:37;;;;;;;22.52;13.82;;;7.50;93.60;;;;;;4993222;28;20415;-83
2022/03/22 08:44:03;;;;;;;27.88;14.25;;;7.60;93.50;;;;;;4960956;28;20037;-84
2022/03/22 08:46:28;;;;;;;32.53;15.13;;;7.70;93.40;;;;;;4993100;28;20026;-84
2022/03/22 08:48:55;;;;;;;22.92;13.30;;;8.50;93.10;;;;;;4960787;28;20058;-84
2022/03/22 08:51:24;;;;;;;23.60;14.82;;;9.60;91.50;;;;;;4961283;28;20030;-84
2022/03/22 08:53:51;;;;;;;25.10;13.13;;;10.60;88.20;;;;;;4993080;28;20099;-84
2022/03/22 08:56:16;;;;;;;24.40;13.85;;;11.20;84.60;;;;;;4993161;28;20481;-84
2022/03/22 08:58:42;;;;;;;19.67;12.60;;;12.00;78.80;;;;;;4992146;28;20045;-84
2022/03/22 09:01:08;;;;;;;21.20;13.27;;;12.90;75.80;;;;;;4960956;28;20535;-83
2022/03/22 09:03:35;;;;;;;24.02;14.57;;;12.40;70.30;;;;;;4960963;28;20501;-83
2022/03/22 09:06:12;;;;;;;21.67;13.40;;;12.40;70.80;;;;;;4961039;28;20022;-83
2022/03/22 09:08:40;;;;;;;22.33;13.35;;;13.00;70.70;;;;;;4960205;28;20062;-83
2022/03/22 09:11:07;;;;;;;20.45;14.02;;;13.70;66.20;;;;;;4992815;28;20137;-83
2022/03/22 09:13:33;;;;;;;27.58;14.10;;;13.60;67.30;;;;;;4961083;28;20121;-83
2022/03/22 09:16:01;;;;;;;20.00;13.93;;;14.10;65.40;;;;;;4960787;28;20177;-84
2022/03/22 09:18:26;;;;;;;22.13;14.02;;;14.00;64.40;;;;;;4992521;28;20042;-84
2022/03/22 09:20:52;;;;;;;28.45;15.93;;;14.10;64.80;;;;;;4960503;28;20034;-83
2022/03/22 09:23:19;;;;;;;21.38;13.43;;;14.20;63.30;;;;;;4976669;28;20489;-84
2022/03/22 09:25:46;;;;;;;22.85;14.57;;;13.80;64.00;;;;;;4960216;28;20035;-83
2022/03/22 09:28:13;;;;;;;21.95;14.07;;;13.30;64.10;;;;;;4992277;28;20088;-84
2022/03/22 09:30:39;;;;;;;28.63;13.90;;;12.60;66.60;;;;;;4960338;28;20034;-83
2022/03/22 09:33:07;;;;;;;25.23;14.77;;;12.40;68.60;;;;;;4992522;28;20034;-83
2022/03/22 09:35:34;;;;;;;23.00;13.68;;;12.30;69.70;;;;;;4993713;28;20107;-83
2022/03/22 09:38:00;;;;;;;23.00;14.88;;;12.40;68.90;;;;;;4959794;28;20045;-84
2022/03/22 09:40:40;;;;;;;23.27;13.98;;;12.80;69.90;;;;;;4960102;28;20038;-83
2022/03/22 09:43:08;;;;;;;20.10;13.13;;;13.10;66.00;;;;;;4959997;28;20027;-83
2022/03/22 09:45:34;;;;;;;25.73;14.32;;;13.00;65.90;;;;;;4976392;28;20089;-84
2022/03/22 09:48:00;;;;;;;25.55;13.82;;;13.30;65.90;;;;;;4959663;28;20062;-83
2022/03/22 09:53:13;;;;;;;20.10;13.90;;;13.90;65.60;;;;;;4975657;28;20375;-84
2022/03/22 09:55:40;;;;;;;23.48;15.25;;;14.40;60.30;;;;;;4974930;28;20122;-83
2022/03/22 09:58:06;;;;;;;21.23;13.00;;;14.90;58.80;;;;;;4958811;28;20034;-83
2022/03/22 10:00:32;;;;;;;20.67;13.27;;;14.50;58.70;;;;;;4959093;28;20080;-83
2022/03/22 10:02:59;;;;;;;22.80;14.40;;;14.20;59.10;;;;;;4959160;28;20034;-83
2022/03/22 10:05:26;;;;;;;23.10;13.98;;;13.90;59.50;;;;;;4959534;28;20121;-83
2022/03/22 10:08:18;;;;;;;19.35;14.02;;;13.90;60.50;;;;;;4991504;28;20022;-82
2022/03/22 10:10:55;;;;;;;24.02;15.25;;;14.30;59.80;;;;;;4956779;28;20042;-83
2022/03/22 10:13:21;;;;;;;24.35;15.30;;;14.70;59.60;;;;;;4975946;28;20026;-83
2022/03/22 10:15:47;;;;;;;27.73;15.95;;;14.60;58.60;;;;;;4992287;28;20038;-83
2022/03/22 10:18:13;;;;;;;21.83;13.98;;;14.90;58.50;;;;;;4959293;28;20041;-83
2022/03/22 10:20:41;;;;;;;21.02;14.30;;;14.80;58.10;;;;;;4959679;28;20117;-84
2022/03/22 10:23:16;;;;;;;23.23;13.63;;;15.10;57.80;;;;;;4959547;28;20125;-84
2022/03/22 10:25:42;;;;;;;23.60;14.88;;;15.20;56.90;;;;;;4991941;28;20065;-84
2022/03/22 10:28:09;;;;;;;20.98;14.23;;;15.20;56.90;;;;;;4959048;28;20061;-83
2022/03/22 10:30:35;;;;;;;23.02;14.55;;;15.40;55.70;;;;;;4959721;28;20038;-84
2022/03/22 10:33:01;;;;;;;21.27;14.25;;;15.70;56.30;;;;;;4959292;28;20042;-84
2022/03/22 10:35:36;;;;;;;27.00;14.20;;;16.10;55.80;;;;;;4958998;28;20027;-84
2022/03/22 10:38:06;;;;;;;21.45;14.35;;;16.50;55.50;;;;;;4958875;28;20133;-84
2022/03/22 10:40:47;;;;;;;21.45;14.63;;;16.80;55.50;;;;;;4991775;28;20394;-84
2022/03/22 10:43:26;;;;;;;22.35;14.60;;;16.30;55.60;;;;;;4959349;28;20041;-83
2022/03/22 10:45:58;;;;;;;24.73;14.73;;;16.10;54.60;;;;;;4992590;28;20093;-84
2022/03/22 10:48:34;;;;;;;24.60;15.55;;;15.60;55.20;;;;;;4958658;28;20474;-84
2022/03/22 10:51:01;;;;;;;25.20;15.50;;;15.80;55.50;;;;;;4975169;28;20030;-84
2022/03/22 10:53:33;;;;;;;23.92;15.38;;;16.30;56.80;;;;;;4991179;28;20129;-84
2022/03/22 10:56:00;;;;;;;29.48;15.23;;;16.30;55.80;;;;;;4975007;28;20035;-84
2022/03/22 10:58:27;;;;;;;20.98;14.93;;;16.30;56.10;;;;;;4975027;28;20133;-84
2022/03/22 11:00:54;;;;;;;22.88;15.60;;;16.20;55.50;;;;;;4959332;28;20046;-84
2022/03/22 11:03:21;;;;;;;28.05;17.25;;;16.30;55.60;;;;;;4992788;28;20058;-84
2022/03/22 11:05:53;;;;;;;21.17;15.77;;;16.10;54.90;;;;;;4959418;28;20549;-84
2022/03/22 11:08:25;;;;;;;25.38;15.02;;;15.80;55.90;;;;;;4991512;28;20027;-84
2022/03/22 11:10:54;;;;;;;27.80;16.38;;;15.40;57.10;;;;;;4975458;28;20031;-84
2022/03/22 11:13:23;;;;;;;24.20;14.82;;;15.50;59.10;;;;;;4990965;28;20030;-84
2022/03/22 11:15:51;;;;;;;25.98;15.63;;;16.10;56.20;;;;;;4991189;28;20031;-85
2022/03/22 11:18:20;;;;;;;22.65;16.65;;;16.60;56.80;;;;;;4959262;28;20054;-84
2022/03/22 11:21:15;;;;;;;25.77;15.90;;;17.10;55.30;;;;;;4959889;28;20035;-84
2022/03/22 11:23:44;;;;;;;24.80;15.85;;;16.80;54.10;;;;;;4994445;28;20504;-84
2022/03/22 11:26:13;;;;;;;24.45;14.63;;;16.90;55.00;;;;;;4962766;28;20031;-84
2022/03/22 11:28:41;;;;;;;25.05;15.77;;;16.80;54.00;;;;;;4994275;28;20034;-84
2022/03/22 11:31:10;;;;;;;28.60;15.30;;;16.60;54.10;;;;;;4962400;28;20493;-85
2022/03/22 11:36:26;;;;;;;30.40;16.45;;;16.70;54.40;;;;;;4978441;28;20117;-84
2022/03/22 11:38:53;;;;;;;23.15;15.98;;;17.00;54.30;;;;;;4962218;28;20034;-85
2022/03/22 11:44:21;;;;;;;26.30;16.65;;;17.70;52.90;;;;;;4978550;28;20034;-84
2022/03/22 11:46:59;;;;;;;24.30;15.13;;;16.80;53.40;;;;;;4961927;28;20033;-84
2022/03/22 11:49:25;;;;;;;24.50;16.02;;;16.60;54.30;;;;;;4994226;28;20034;-84
2022/03/22 11:51:56;;;;;;;22.85;14.73;;;16.40;55.30;;;;;;4977473;28;20471;-84
2022/03/22 11:54:24;;;;;;;26.20;17.25;;;16.20;55.50;;;;;;4961496;28;20030;-84
2022/03/22 11:56:53;;;;;;;28.58;16.17;;;16.80;55.60;;;;;;4961666;28;20026;-84
2022/03/22 11:59:20;;;;;;;27.45;15.32;;;17.50;54.90;;;;;;4993545;28;20034;-84
2022/03/22 12:02:04;;;;;;;21.92;16.67;;;17.80;53.70;;;;;;4961325;28;20073;-84
2022/03/22 12:04:41;;;;;;;25.40;16.95;;;17.90;53.60;;;;;;4961822;28;20057;-84
2022/03/22 12:07:08;;;;;;;26.23;16.55;;;18.00;52.70;;;;;;4977735;28;20062;-84
2022/03/22 12:09:38;;;;;;;25.30;16.15;;;18.20;53.00;;;;;;4961652;28;20065;-84
2022/03/22 12:12:06;;;;;;;25.02;15.90;;;18.20;52.30;;;;;;4961869;28;20038;-83
2022/03/22 12:14:34;;;;;;;25.50;16.70;;;18.10;51.30;;;;;;4961576;28;20096;-84
2022/03/22 12:17:02;;;;;;;29.83;17.23;;;17.60;52.90;;;;;;4993857;28;20038;-84
2022/03/22 12:19:34;;;;;;;23.75;15.98;;;17.60;52.60;;;;;;4961720;28;20037;-84
2022/03/22 12:22:02;;;;;;;23.05;15.50;;;17.30;53.10;;;;;;4977550;28;20118;-84
2022/03/22 12:24:33;;;;;;;32.15;17.08;;;17.40;54.90;;;;;;4962625;28;20035;-84
2022/03/22 12:27:04;;;;;;;24.60;16.42;;;17.50;54.40;;;;;;4978243;28;20027;-84
2022/03/22 12:29:30;;;;;;;24.27;15.98;;;17.60;53.80;;;;;;4962213;28;20027;-84
2022/03/22 12:32:06;;;;;;;23.95;16.75;;;18.00;54.00;;;;;;4961213;28;20053;-84
2022/03/22 12:34:35;;;;;;;23.27;16.27;;;18.10;53.20;;;;;;4961461;28;20041;-84
2022/03/22 12:37:01;;;;;;;24.30;16.58;;;18.30;53.60;;;;;;4961102;28;20037;-85
2022/03/22 12:39:26;;;;;;;25.85;17.17;;;18.50;52.70;;;;;;4961366;28;20038;-84
2022/03/22 12:41:52;;;;;;;25.90;15.95;;;18.00;54.80;;;;;;4961000;28;20538;-84
2022/03/22 12:44:21;;;;;;;24.10;15.98;;;18.10;53.30;;;;;;4977038;28;20031;-84
2022/03/22 12:46:48;;;;;;;25.75;17.08;;;17.80;53.60;;;;;;4960950;28;20104;-84
2022/03/22 12:49:13;;;;;;;23.10;15.70;;;17.90;54.40;;;;;;4961168;28;20034;-84
2022/03/22 12:51:40;;;;;;;22.13;15.90;;;17.80;52.80;;;;;;4993310;28;20545;-84
2022/03/22 12:54:06;;;;;;;27.55;16.55;;;17.60;53.70;;;;;;4977002;28;20542;-84
2022/03/22 12:56:32;;;;;;;26.70;16.35;;;17.20;54.00;;;;;;4977205;28;20034;-84
2022/03/22 12:58:58;;;;;;;24.83;16.27;;;17.40;54.70;;;;;;4961039;28;20037;-84
2022/03/22 13:01:24;;;;;;;28.92;16.88;;;17.50;55.20;;;;;;4960918;28;20053;-84
2022/03/22 13:03:50;;;;;;;23.73;16.85;;;17.20;55.40;;;;;;4992973;28;20023;-84
2022/03/22 13:06:17;;;;;;;28.75;17.52;;;16.90;55.70;;;;;;4960628;28;20062;-83
2022/03/22 13:11:27;;;;;;;27.60;16.65;;;16.90;56.50;;;;;;4976450;28;20042;-84
2022/03/22 13:16:54;;;;;;;24.35;16.70;;;16.60;57.10;;;;;;4976170;28;20035;-83